createdAt,value
2023-05-15T00:00:16.862Z,12.21
2023-05-15T00:03:18.616Z,12.14
2023-05-15T00:06:20.775Z,12.11
2023-05-15T00:09:22.376Z,12.00
2023-05-15T00:12:24.071Z,12.04
2023-05-15T00:15:26.005Z,11.95
2023-05-15T00:18:27.992Z,11.89
2023-05-15T00:21:29.908Z,11.78
2023-05-15T00:24:31.455Z,11.83
2023-05-15T00:27:33.465Z,11.83
2023-05-15T00:30:35.021Z,11.73
2023-05-15T00:33:36.663Z,11.69
2023-05-15T00:36:39.201Z,11.65
2023-05-15T00:39:40.805Z,11.66
2023-05-15T00:42:42.685Z,11.50
2023-05-15T00:45:45.607Z,11.50
2023-05-15T00:48:49.736Z,11.54
2023-05-15T00:51:53.253Z,11.61
2023-05-15T00:54:54.808Z,11.66
2023-05-15T00:57:57.819Z,11.71
2023-05-15T01:00:59.489Z,11.81
2023-05-15T01:04:02.204Z,11.78
2023-05-15T01:07:04.748Z,11.88
2023-05-15T01:10:08.401Z,11.88
2023-05-15T01:13:13.626Z,11.88
2023-05-15T01:16:16.423Z,11.89
2023-05-15T01:19:18.131Z,11.85
2023-05-15T01:22:41.094Z,11.91
2023-05-15T01:26:08.999Z,11.86
2023-05-15T01:29:19.507Z,11.83
2023-05-15T01:32:28.101Z,12.06
2023-05-15T01:35:39.375Z,12.15
2023-05-15T01:38:43.984Z,12.20
2023-05-15T01:41:54.637Z,12.07
2023-05-15T01:44:57.646Z,11.92
2023-05-15T01:48:00.750Z,11.83
2023-05-15T01:51:06.161Z,11.76
2023-05-15T01:54:08.980Z,11.68
2023-05-15T01:57:11.684Z,11.56
2023-05-15T02:00:14.013Z,11.45
2023-05-15T02:03:16.001Z,11.41
2023-05-15T02:06:18.406Z,11.35
2023-05-15T02:09:21.692Z,11.29
2023-05-15T02:12:24.046Z,11.30
2023-05-15T02:15:27.540Z,11.34
2023-05-15T02:18:29.532Z,11.39
2023-05-15T02:21:32.469Z,11.46
2023-05-15T02:24:34.041Z,11.52
2023-05-15T02:27:55.729Z,11.53
2023-05-15T02:31:08.297Z,11.47
2023-05-15T02:34:18.761Z,11.43
2023-05-15T02:37:27.235Z,11.37
2023-05-15T02:40:30.721Z,11.38
2023-05-15T02:43:33.109Z,11.40
2023-05-15T02:46:36.630Z,11.33
2023-05-15T02:49:39.856Z,11.24
2023-05-15T02:52:41.446Z,11.18
2023-05-15T02:55:43.124Z,11.21
2023-05-15T02:58:44.830Z,11.13
2023-05-15T03:01:47.378Z,11.17
2023-05-15T03:04:49.040Z,11.10
2023-05-15T03:07:50.651Z,11.05
2023-05-15T03:10:52.504Z,11.07
2023-05-15T03:13:54.096Z,11.05
2023-05-15T03:16:55.741Z,11.07
2023-05-15T03:19:57.558Z,11.01
2023-05-15T03:22:59.119Z,11.07
2023-05-15T03:26:00.681Z,11.05
2023-05-15T03:29:02.493Z,10.93
2023-05-15T03:32:04.260Z,10.98
2023-05-15T03:35:06.208Z,10.99
2023-05-15T03:38:07.810Z,11.00
2023-05-15T03:41:10.216Z,11.11
2023-05-15T03:44:12.067Z,11.03
2023-05-15T03:47:14.648Z,11.07
2023-05-15T03:50:17.797Z,11.20
2023-05-15T03:53:19.397Z,11.21
2023-05-15T03:56:21.323Z,11.35
2023-05-15T03:59:22.884Z,11.35
2023-05-15T04:02:24.499Z,11.31
2023-05-15T04:05:26.529Z,11.38
2023-05-15T04:08:28.409Z,11.33
2023-05-15T04:11:29.961Z,11.28
2023-05-15T04:14:31.526Z,11.31
2023-05-15T04:17:33.156Z,11.26
2023-05-15T04:20:34.750Z,11.21
2023-05-15T04:23:36.270Z,11.22
2023-05-15T04:26:37.915Z,11.20
2023-05-15T04:29:39.508Z,11.14
2023-05-15T04:32:41.236Z,11.08
2023-05-15T04:35:43.282Z,11.09
2023-05-15T04:38:44.902Z,11.14
2023-05-15T04:41:46.412Z,11.19
2023-05-15T04:44:47.979Z,11.25
2023-05-15T04:47:49.695Z,11.30
2023-05-15T04:50:51.895Z,11.33
2023-05-15T04:53:53.389Z,11.40
2023-05-15T04:56:55.072Z,11.49
2023-05-15T04:59:57.993Z,11.53
2023-05-15T05:02:59.577Z,11.53
2023-05-15T05:06:01.360Z,11.56
2023-05-15T05:09:03.382Z,11.55
2023-05-15T05:12:05.331Z,11.59
2023-05-15T05:15:07.581Z,11.66
2023-05-15T05:18:09.260Z,11.78
2023-05-15T05:21:10.823Z,11.87
2023-05-15T05:24:12.393Z,11.97
2023-05-15T05:27:13.924Z,12.04
2023-05-15T05:30:15.836Z,12.11
2023-05-15T05:33:17.721Z,12.13
2023-05-15T05:36:19.540Z,12.19
2023-05-15T05:39:21.195Z,12.23
2023-05-15T05:42:22.761Z,12.30
2023-05-15T05:45:24.506Z,12.30
2023-05-15T05:48:26.779Z,12.33
2023-05-15T05:51:28.483Z,12.33
2023-05-15T05:54:30.018Z,12.44
2023-05-15T05:57:31.820Z,12.44
2023-05-15T06:00:33.399Z,12.39
2023-05-15T06:03:35.543Z,12.45
2023-05-15T06:06:37.351Z,12.45
2023-05-15T06:09:38.881Z,12.42
2023-05-15T06:12:40.639Z,12.52
2023-05-15T06:15:43.251Z,12.54
2023-05-15T06:18:44.895Z,12.43
2023-05-15T06:21:46.502Z,12.47
2023-05-15T06:24:48.145Z,12.49
2023-05-15T06:27:49.748Z,12.48
2023-05-15T06:30:51.449Z,12.59
2023-05-15T06:33:53.092Z,12.64
2023-05-15T06:36:54.682Z,12.80
2023-05-15T06:39:56.522Z,12.89
2023-05-15T06:42:58.872Z,12.86
2023-05-15T06:46:00.647Z,13.02
2023-05-15T06:49:02.242Z,13.11
2023-05-15T06:52:04.284Z,13.19
2023-05-15T06:55:06.215Z,13.33
2023-05-15T06:58:07.806Z,13.54
2023-05-15T07:01:09.607Z,13.94
2023-05-15T07:04:13.429Z,13.96
2023-05-15T07:07:15.099Z,14.02
2023-05-15T07:10:16.805Z,13.98
2023-05-15T07:13:19.826Z,13.91
2023-05-15T07:16:21.527Z,14.01
2023-05-15T07:19:23.283Z,13.96
2023-05-15T07:22:28.063Z,14.04
2023-05-15T07:25:29.740Z,14.19
2023-05-15T07:28:31.300Z,14.27
2023-05-15T07:31:33.776Z,14.45
2023-05-15T07:34:35.411Z,15.20
2023-05-15T07:37:37.898Z,15.21
2023-05-15T07:40:39.585Z,15.44
2023-05-15T07:43:41.190Z,15.53
2023-05-15T07:46:43.093Z,15.46
2023-05-15T07:49:44.855Z,15.58
2023-05-15T07:52:46.493Z,15.59
2023-05-15T07:55:48.247Z,15.61
2023-05-15T07:58:49.886Z,15.72
2023-05-15T08:01:51.597Z,15.58
2023-05-15T08:04:53.138Z,15.41
2023-05-15T08:07:55.094Z,15.48
2023-05-15T08:10:56.664Z,15.33
2023-05-15T08:13:58.167Z,15.27
2023-05-15T08:16:59.710Z,15.22
2023-05-15T08:20:01.246Z,15.30
2023-05-15T08:23:02.829Z,15.62
2023-05-15T08:26:04.572Z,15.83
2023-05-15T08:29:06.091Z,15.66
2023-05-15T08:32:09.547Z,15.41
2023-05-15T08:35:11.615Z,15.89
2023-05-15T08:38:13.375Z,15.98
2023-05-15T08:41:40.958Z,16.13
2023-05-15T08:44:44.194Z,15.97
2023-05-15T08:47:46.041Z,16.22
2023-05-15T08:50:48.820Z,16.19
2023-05-15T08:53:51.127Z,16.18
2023-05-15T08:56:53.455Z,16.24
2023-05-15T08:59:55.405Z,16.09
2023-05-15T09:03:01.235Z,16.71
2023-05-15T09:06:05.216Z,17.51
2023-05-15T09:09:09.300Z,17.23
2023-05-15T09:12:14.624Z,17.98
2023-05-15T09:15:18.411Z,17.94
2023-05-15T09:18:20.461Z,17.30
2023-05-15T09:21:31.211Z,17.66
2023-05-15T09:24:37.673Z,17.49
2023-05-15T09:27:43.562Z,17.50
2023-05-15T09:30:45.267Z,17.33
2023-05-15T09:33:46.944Z,17.15
2023-05-15T09:36:48.510Z,17.76
2023-05-15T09:39:50.330Z,18.15
2023-05-15T09:42:52.742Z,18.58
2023-05-15T09:45:54.976Z,18.36
2023-05-15T09:48:56.679Z,18.72
2023-05-15T09:51:59.947Z,19.30
2023-05-15T09:55:01.700Z,19.12
2023-05-15T09:58:16.522Z,19.24
2023-05-15T10:01:21.444Z,19.14
2023-05-15T10:04:23.106Z,19.17
2023-05-15T10:07:36.875Z,20.11
2023-05-15T10:10:38.718Z,20.39
2023-05-15T10:13:40.684Z,20.20
2023-05-15T10:16:42.422Z,20.08
2023-05-15T10:19:56.666Z,20.61
2023-05-15T10:23:00.627Z,20.01
2023-05-15T10:26:06.822Z,20.00
2023-05-15T10:29:13.695Z,19.97
2023-05-15T10:32:16.042Z,19.79
2023-05-15T10:35:18.553Z,19.70
2023-05-15T10:38:21.096Z,19.55
2023-05-15T10:41:23.509Z,19.52
2023-05-15T10:44:25.053Z,20.11
2023-05-15T10:47:27.311Z,20.44
2023-05-15T10:50:29.317Z,20.29
2023-05-15T10:53:33.604Z,21.05
2023-05-15T10:56:38.257Z,21.84
2023-05-15T10:59:41.882Z,22.12
2023-05-15T11:02:46.145Z,21.31
2023-05-15T11:06:10.775Z,20.53
2023-05-15T11:09:26.599Z,20.14
2023-05-15T11:12:56.304Z,20.62
2023-05-15T11:15:57.904Z,20.06
2023-05-15T11:18:59.468Z,19.68
2023-05-15T11:22:16.362Z,19.71
2023-05-15T11:25:17.944Z,19.73
2023-05-15T11:28:24.302Z,20.19
2023-05-15T11:31:30.516Z,19.77
2023-05-15T11:34:35.561Z,19.46
2023-05-15T11:37:45.704Z,20.38
2023-05-15T11:40:48.524Z,21.32
2023-05-15T11:43:50.265Z,20.27
2023-05-15T11:46:53.092Z,19.87
2023-05-15T11:49:54.822Z,19.56
2023-05-15T11:52:56.860Z,19.80
2023-05-15T11:55:59.302Z,20.05
2023-05-15T11:59:02.369Z,20.19
2023-05-15T12:02:06.287Z,20.96
2023-05-15T12:05:08.950Z,21.51
2023-05-15T12:08:12.330Z,21.55
2023-05-15T12:11:13.899Z,22.54
2023-05-15T12:14:15.400Z,21.55
2023-05-15T12:17:18.373Z,19.87
2023-05-15T12:20:20.265Z,19.52
2023-05-15T12:23:23.610Z,18.90
2023-05-15T12:26:29.248Z,19.15
2023-05-15T12:29:31.132Z,18.16
2023-05-15T12:32:36.338Z,18.03
2023-05-15T12:35:43.043Z,16.93
2023-05-15T12:38:44.595Z,15.96
2023-05-15T12:41:47.765Z,15.78
2023-05-15T12:44:52.433Z,15.30
2023-05-15T12:47:54.041Z,14.73
2023-05-15T12:50:55.606Z,14.29
2023-05-15T12:53:59.950Z,14.28
2023-05-15T12:57:02.174Z,14.16
2023-05-15T13:00:05.377Z,14.20
2023-05-15T13:03:10.323Z,14.20
2023-05-15T13:06:11.982Z,14.23
2023-05-15T13:09:13.698Z,14.34
2023-05-15T13:12:19.309Z,14.50
2023-05-15T13:15:37.281Z,14.70
2023-05-15T13:18:39.007Z,14.69
2023-05-15T13:21:40.976Z,14.60
2023-05-15T13:24:46.037Z,14.73
2023-05-15T13:27:48.442Z,14.98
2023-05-15T13:30:50.069Z,15.27
2023-05-15T13:33:51.607Z,15.49
2023-05-15T13:36:53.179Z,15.55
2023-05-15T13:39:54.719Z,15.11
2023-05-15T13:42:56.358Z,15.32
2023-05-15T13:45:58.023Z,15.35
2023-05-15T13:48:59.561Z,15.49
2023-05-15T13:52:01.181Z,15.48
2023-05-15T13:55:04.431Z,15.51
2023-05-15T13:58:05.969Z,15.41
2023-05-15T14:01:08.774Z,15.35
2023-05-15T14:04:10.405Z,15.60
2023-05-15T14:07:12.054Z,15.27
2023-05-15T14:10:13.793Z,15.35
2023-05-15T14:13:15.403Z,15.23
2023-05-15T14:16:16.960Z,15.17
2023-05-15T14:19:18.633Z,15.07
2023-05-15T14:22:20.346Z,14.77
2023-05-15T14:25:22.054Z,14.77
2023-05-15T14:28:23.625Z,14.84
2023-05-15T14:31:25.961Z,14.93
2023-05-15T14:34:27.614Z,14.74
2023-05-15T14:37:29.223Z,14.55
2023-05-15T14:40:30.779Z,14.54
2023-05-15T14:43:32.293Z,14.74
2023-05-15T14:46:33.921Z,14.83
2023-05-15T14:49:36.463Z,14.75
2023-05-15T14:52:38.193Z,14.76
2023-05-15T14:55:39.746Z,14.82
2023-05-15T14:58:41.286Z,14.77
2023-05-15T15:01:42.873Z,14.82
2023-05-15T15:04:44.926Z,14.78
2023-05-15T15:08:04.773Z,15.07
2023-05-15T15:11:07.265Z,15.24
2023-05-15T15:14:08.788Z,15.48
2023-05-15T15:17:10.429Z,15.46
2023-05-15T15:20:12.281Z,15.42
2023-05-15T15:23:14.368Z,15.40
2023-05-15T15:26:15.938Z,15.75
2023-05-15T15:29:17.475Z,15.71
2023-05-15T15:32:19.842Z,15.83
2023-05-15T15:35:21.572Z,16.07
2023-05-15T15:38:23.158Z,16.27
2023-05-15T15:41:24.762Z,16.25
2023-05-15T15:44:26.401Z,16.32
2023-05-15T15:47:29.670Z,16.27
2023-05-15T15:50:31.314Z,16.29
2023-05-15T15:53:34.525Z,16.30
2023-05-15T15:56:36.150Z,16.23
2023-05-15T15:59:37.695Z,16.35
2023-05-15T16:02:40.497Z,16.15
2023-05-15T16:05:42.030Z,16.21
2023-05-15T16:08:43.598Z,16.45
2023-05-15T16:11:45.105Z,16.79
2023-05-15T16:14:46.711Z,17.03
2023-05-15T16:17:51.175Z,17.83
2023-05-15T16:20:52.812Z,18.02
2023-05-15T16:23:54.442Z,18.02
2023-05-15T16:26:56.579Z,18.13
2023-05-15T16:29:58.160Z,17.81
2023-05-15T16:32:59.885Z,18.10
2023-05-15T16:36:01.755Z,17.93
2023-05-15T16:39:04.420Z,17.82
2023-05-15T16:42:08.585Z,17.76
2023-05-15T16:45:11.049Z,17.54
2023-05-15T16:48:12.819Z,17.40
2023-05-15T16:51:14.448Z,17.98
2023-05-15T16:54:16.177Z,17.84
2023-05-15T16:57:17.787Z,17.41
2023-05-15T17:00:20.951Z,17.06
2023-05-15T17:03:22.536Z,17.02
2023-05-15T17:06:24.188Z,17.24
2023-05-15T17:09:25.859Z,17.33
2023-05-15T17:12:27.590Z,17.04
2023-05-15T17:15:29.277Z,16.62
2023-05-15T17:18:31.220Z,16.47
2023-05-15T17:21:33.641Z,16.56
2023-05-15T17:24:49.480Z,16.51
2023-05-15T17:27:52.118Z,16.32
2023-05-15T17:30:53.612Z,16.02
2023-05-15T17:33:55.481Z,15.69
2023-05-15T17:36:57.080Z,15.51
2023-05-15T17:39:58.678Z,15.33
2023-05-15T17:43:00.367Z,15.22
2023-05-15T17:46:02.124Z,15.11
2023-05-15T17:49:03.724Z,15.04
2023-05-15T17:52:06.370Z,14.94
2023-05-15T17:55:08.677Z,15.02
2023-05-15T17:58:10.344Z,15.00
2023-05-15T18:01:11.941Z,14.94
2023-05-15T18:04:13.631Z,14.79
2023-05-15T18:07:15.535Z,14.61
2023-05-15T18:10:17.165Z,14.53
2023-05-15T18:13:18.788Z,14.26
2023-05-15T18:16:20.641Z,14.21
2023-05-15T18:19:22.812Z,14.24
2023-05-15T18:22:24.693Z,14.23
2023-05-15T18:25:26.786Z,14.18
2023-05-15T18:28:30.557Z,14.14
2023-05-15T18:31:32.222Z,14.05
2023-05-15T18:34:34.190Z,14.07
2023-05-15T18:37:35.779Z,14.08
2023-05-15T18:40:37.686Z,14.00
2023-05-15T18:43:39.225Z,13.90
2023-05-15T18:46:40.843Z,13.81
2023-05-15T18:49:42.476Z,13.82
2023-05-15T18:52:44.496Z,13.79
2023-05-15T18:55:46.033Z,13.83
2023-05-15T18:58:47.627Z,13.79
2023-05-15T19:01:49.495Z,13.64
2023-05-15T19:04:51.058Z,13.50
2023-05-15T19:07:52.804Z,13.54
2023-05-15T19:10:54.364Z,13.59
2023-05-15T19:13:55.969Z,13.78
2023-05-15T19:16:57.534Z,13.74
2023-05-15T19:19:59.096Z,13.71
2023-05-15T19:23:03.437Z,13.62
2023-05-15T19:26:05.074Z,13.65
2023-05-15T19:29:06.628Z,13.62
2023-05-15T19:32:08.599Z,13.58
2023-05-15T19:35:10.344Z,13.49
2023-05-15T19:38:12.259Z,13.46
2023-05-15T19:41:14.632Z,13.47
2023-05-15T19:44:16.405Z,13.43
2023-05-15T19:47:18.153Z,13.47
2023-05-15T19:50:19.740Z,13.46
2023-05-15T19:53:23.500Z,13.47
2023-05-15T19:56:26.125Z,13.45
2023-05-15T19:59:27.664Z,13.32
2023-05-15T20:02:29.375Z,13.29
2023-05-15T20:05:31.060Z,13.17
2023-05-15T20:08:32.657Z,13.21
2023-05-15T20:11:34.223Z,13.22
2023-05-15T20:14:35.797Z,13.21
2023-05-15T20:17:37.447Z,13.21
2023-05-15T20:20:39.025Z,13.32
2023-05-15T20:23:40.861Z,13.34
2023-05-15T20:26:43.054Z,13.25
2023-05-15T20:29:45.287Z,13.26
2023-05-15T20:32:46.938Z,13.23
2023-05-15T20:35:51.225Z,13.27
2023-05-15T20:38:52.931Z,13.29
2023-05-15T20:41:54.469Z,13.29
2023-05-15T20:44:56.281Z,13.14
2023-05-15T20:47:57.950Z,13.09
2023-05-15T20:50:59.629Z,13.09
2023-05-15T20:54:01.188Z,13.12
2023-05-15T20:57:02.870Z,13.02
2023-05-15T21:00:05.530Z,13.07
2023-05-15T21:03:07.400Z,13.06
2023-05-15T21:06:09.300Z,13.09
2023-05-15T21:09:11.335Z,13.18
2023-05-15T21:12:12.955Z,13.33
2023-05-15T21:15:14.557Z,13.34
2023-05-15T21:18:16.222Z,13.35
2023-05-15T21:21:18.030Z,13.32
2023-05-15T21:24:19.751Z,13.30
2023-05-15T21:27:21.348Z,13.35
2023-05-15T21:30:22.891Z,13.30
2023-05-15T21:33:24.531Z,13.18
2023-05-15T21:36:26.130Z,13.24
2023-05-15T21:39:27.713Z,13.20
2023-05-15T21:42:31.427Z,13.18
2023-05-15T21:45:33.225Z,13.19
2023-05-15T21:48:34.769Z,13.22
2023-05-15T21:51:36.343Z,13.22
2023-05-15T21:54:37.962Z,13.16
2023-05-15T21:57:39.565Z,13.09
2023-05-15T22:00:41.108Z,13.05
2023-05-15T22:03:42.779Z,13.11
2023-05-15T22:06:44.766Z,13.09
2023-05-15T22:09:46.420Z,12.99
2023-05-15T22:12:47.991Z,12.96
2023-05-15T22:15:49.557Z,12.94
2023-05-15T22:18:51.215Z,12.86
2023-05-15T22:21:52.831Z,12.86
2023-05-15T22:24:54.313Z,12.82
2023-05-15T22:27:55.989Z,12.77
2023-05-15T22:30:57.545Z,12.79
2023-05-15T22:33:59.022Z,12.71
2023-05-15T22:37:00.651Z,12.68
2023-05-15T22:40:03.757Z,12.67
2023-05-15T22:43:05.364Z,12.73
2023-05-15T22:46:06.982Z,12.67
2023-05-15T22:49:19.006Z,12.69
2023-05-15T22:52:20.551Z,12.62
2023-05-15T22:55:22.116Z,12.64
2023-05-15T22:58:23.836Z,12.54
2023-05-15T23:01:25.923Z,12.29
2023-05-15T23:04:27.722Z,12.37
2023-05-15T23:07:29.313Z,12.30
2023-05-15T23:10:30.873Z,12.38
2023-05-15T23:13:32.421Z,12.30
2023-05-15T23:16:34.132Z,12.32
2023-05-15T23:19:35.811Z,12.35
2023-05-15T23:22:37.357Z,12.34
2023-05-15T23:25:38.977Z,12.27
2023-05-15T23:28:40.774Z,12.24
2023-05-15T23:31:43.281Z,12.18
2023-05-15T23:34:44.854Z,12.06
2023-05-15T23:37:46.395Z,12.01
2023-05-15T23:40:49.257Z,12.01
2023-05-15T23:43:50.894Z,12.01
2023-05-15T23:46:52.488Z,12.03
2023-05-15T23:49:54.026Z,12.02
2023-05-15T23:52:55.566Z,12.01
2023-05-15T23:55:57.117Z,12.01
2023-05-15T23:58:58.716Z,12.02
